Time;durP1;ratioP1;P1;durP2;ratioP2;P2;SDS_P1;SDS_P2;PMS_P1;PMS_P2;Temp;Humidity;BMP_temperature;BMP_pressure;BME280_temperature;BME280_humidity;BME280_pressure;Samples;Min_cycle;Max_cycle;Signal;HPM_P1;HPM_P2
2022/03/20 00:02:16;;;;;;;11.07;4.07;;;6.30;93.00;;;;;;4921513;28;37723;-57
2022/03/20 00:04:43;;;;;;;9.48;3.97;;;6.30;93.20;;;;;;4922343;28;38142;-57
2022/03/20 00:07:12;;;;;;;10.70;4.18;;;6.30;93.00;;;;;;4922519;28;37247;-57
2022/03/20 00:09:39;;;;;;;10.85;4.13;;;6.30;93.20;;;;;;4921864;28;35151;-57
2022/03/20 00:12:08;;;;;;;9.48;4.38;;;6.30;93.10;;;;;;4922142;28;38212;-57
2022/03/20 00:14:35;;;;;;;9.05;4.45;;;6.30;92.90;;;;;;4925585;28;38496;-57
2022/03/20 00:17:02;;;;;;;13.30;4.22;;;6.30;93.00;;;;;;4925642;28;35965;-57
2022/03/20 00:19:30;;;;;;;9.73;4.20;;;6.30;93.00;;;;;;4925739;28;36943;-57
2022/03/20 00:21:58;;;;;;;10.05;4.38;;;6.30;93.40;;;;;;4925627;28;39654;-57
2022/03/20 00:24:27;;;;;;;9.15;4.18;;;6.20;93.40;;;;;;4924096;28;37766;-57
2022/03/20 00:26:56;;;;;;;10.48;4.82;;;6.20;93.80;;;;;;4925273;28;38145;-57
2022/03/20 00:29:25;;;;;;;10.43;4.53;;;6.10;93.90;;;;;;4924728;28;36133;-57
2022/03/20 00:31:52;;;;;;;10.48;5.07;;;6.10;94.30;;;;;;4925554;28;37762;-57
2022/03/20 00:34:20;;;;;;;8.93;4.35;;;6.10;94.00;;;;;;4924943;28;37865;-57
2022/03/20 00:36:47;;;;;;;11.02;4.53;;;6.10;94.30;;;;;;4926968;28;35703;-57
2022/03/20 00:39:15;;;;;;;11.15;4.28;;;6.00;94.20;;;;;;4926102;28;35878;-57
2022/03/20 00:41:43;;;;;;;10.07;4.88;;;6.00;94.20;;;;;;4926500;28;38127;-57
2022/03/20 00:44:11;;;;;;;10.80;4.65;;;6.00;94.60;;;;;;4926288;28;38476;-56
2022/03/20 00:46:38;;;;;;;10.43;4.50;;;6.00;94.70;;;;;;4927148;28;37100;-56
2022/03/20 00:49:06;;;;;;;8.90;4.55;;;5.90;95.20;;;;;;4926058;28;37293;-55
2022/03/20 00:51:33;;;;;;;11.60;4.63;;;5.90;95.10;;;;;;4926453;28;37551;-57
2022/03/20 00:54:01;;;;;;;12.27;4.68;;;5.90;94.90;;;;;;4927037;28;37961;-56
2022/03/20 00:56:28;;;;;;;13.40;5.63;;;5.90;95.00;;;;;;4926862;28;38510;-57
2022/03/20 00:58:57;;;;;;;12.45;4.78;;;5.90;95.10;;;;;;4926555;28;37465;-57
2022/03/20 01:01:26;;;;;;;12.95;4.60;;;5.90;94.80;;;;;;4927369;28;38329;-57
2022/03/20 01:03:54;;;;;;;12.27;5.18;;;5.90;94.60;;;;;;4926748;28;37236;-58
2022/03/20 01:06:22;;;;;;;9.63;4.13;;;5.80;95.20;;;;;;4925888;28;37451;-57
2022/03/20 01:08:50;;;;;;;10.57;3.97;;;5.90;94.70;;;;;;4926998;28;38579;-58
2022/03/20 01:11:18;;;;;;;10.88;5.20;;;5.90;94.40;;;;;;4924983;28;37484;-57
2022/03/20 01:13:45;;;;;;;10.35;4.80;;;5.90;94.30;;;;;;4925293;28;38495;-57
2022/03/20 01:16:14;;;;;;;8.95;4.60;;;5.90;94.60;;;;;;4925206;28;38391;-57
2022/03/20 01:18:42;;;;;;;12.05;5.15;;;5.90;94.60;;;;;;4926115;28;36489;-57
2022/03/20 01:21:09;;;;;;;11.30;5.13;;;5.90;94.20;;;;;;4926233;28;38964;-57
2022/03/20 01:23:38;;;;;;;11.20;4.63;;;5.80;94.70;;;;;;4925187;28;37805;-57
2022/03/20 01:26:06;;;;;;;10.00;4.55;;;5.80;94.40;;;;;;4925477;28;37080;-57
2022/03/20 01:28:33;;;;;;;9.15;4.28;;;5.80;94.40;;;;;;4925814;28;36416;-57
2022/03/20 01:31:01;;;;;;;10.30;5.20;;;5.80;94.10;;;;;;4926333;28;37103;-58
2022/03/20 01:33:29;;;;;;;11.65;5.05;;;5.80;94.40;;;;;;4924981;28;37923;-58
2022/03/20 01:35:57;;;;;;;10.70;5.43;;;5.70;94.50;;;;;;4926021;28;37120;-57
2022/03/20 01:38:25;;;;;;;9.70;5.40;;;5.70;94.60;;;;;;4926048;28;36262;-57
2022/03/20 01:40:52;;;;;;;10.95;5.53;;;5.60;94.60;;;;;;4925497;28;36310;-57
2022/03/20 01:43:20;;;;;;;12.95;5.72;;;5.60;94.60;;;;;;4924706;28;38051;-57
2022/03/20 01:45:48;;;;;;;9.45;5.28;;;5.60;95.00;;;;;;4925420;28;38898;-56
2022/03/20 01:48:15;;;;;;;10.27;5.07;;;5.60;94.90;;;;;;4925032;28;37524;-57
2022/03/20 01:50:44;;;;;;;10.80;5.53;;;5.50;95.10;;;;;;4924098;28;36886;-57
2022/03/20 01:53:12;;;;;;;13.30;6.35;;;5.50;95.60;;;;;;4925618;28;36803;-57
2022/03/20 01:55:39;;;;;;;13.45;4.75;;;5.40;95.70;;;;;;4923395;28;37886;-57
2022/03/20 01:58:06;;;;;;;12.95;5.18;;;5.40;95.40;;;;;;4924709;28;36545;-57
2022/03/20 02:00:34;;;;;;;11.10;5.40;;;5.40;95.40;;;;;;4923859;28;37601;-57
2022/03/20 02:03:01;;;;;;;9.02;4.72;;;5.40;95.50;;;;;;4924718;28;37715;-58
2022/03/20 02:05:29;;;;;;;11.95;5.53;;;5.30;95.60;;;;;;4925065;28;36179;-58
2022/03/20 02:07:59;;;;;;;13.00;5.78;;;5.30;95.80;;;;;;4923600;28;36585;-57
2022/03/20 02:10:35;;;;;;;15.25;6.13;;;5.30;96.10;;;;;;4924832;28;38212;-57
2022/03/20 02:13:03;;;;;;;14.75;6.38;;;5.20;96.00;;;;;;4924817;28;38001;-57
2022/03/20 02:15:30;;;;;;;13.23;5.85;;;5.20;96.30;;;;;;4924699;28;38354;-57
2022/03/20 02:17:58;;;;;;;12.57;5.78;;;5.20;96.20;;;;;;4924524;28;36413;-56
2022/03/20 02:20:25;;;;;;;12.40;5.57;;;5.20;96.50;;;;;;4922991;28;35525;-57
2022/03/20 02:22:54;;;;;;;11.57;5.93;;;5.20;95.90;;;;;;4924367;28;37847;-57
2022/03/20 02:25:21;;;;;;;13.85;6.10;;;5.20;95.70;;;;;;4924447;28;37754;-57
2022/03/20 02:27:49;;;;;;;14.40;5.93;;;5.20;95.70;;;;;;4924585;28;37549;-57
2022/03/20 02:30:18;;;;;;;16.73;7.03;;;5.20;95.60;;;;;;4924518;28;36107;-57
2022/03/20 02:32:49;;;;;;;13.60;6.75;;;5.30;95.80;;;;;;4923415;28;37826;-57
2022/03/20 02:35:18;;;;;;;13.52;6.03;;;5.20;95.60;;;;;;4921968;28;37323;-57
2022/03/20 02:37:47;;;;;;;13.23;7.05;;;5.20;95.50;;;;;;4925211;28;37483;-55
2022/03/20 02:40:18;;;;;;;11.10;5.88;;;5.20;95.50;;;;;;4924788;28;37502;-57
2022/03/20 02:42:48;;;;;;;16.00;6.68;;;5.20;95.70;;;;;;4925077;28;37720;-57
2022/03/20 02:45:18;;;;;;;15.20;6.93;;;5.10;95.40;;;;;;4924681;28;36761;-57
2022/03/20 02:47:47;;;;;;;14.32;7.03;;;5.10;95.40;;;;;;4924562;28;37253;-57
2022/03/20 02:50:17;;;;;;;11.30;6.80;;;5.10;95.50;;;;;;4924983;28;37472;-57
2022/03/20 02:52:48;;;;;;;12.02;6.45;;;5.00;95.50;;;;;;4924322;28;36381;-57
2022/03/20 02:55:19;;;;;;;15.90;7.55;;;5.10;95.60;;;;;;4924279;28;38560;-57
2022/03/20 02:57:47;;;;;;;13.80;7.28;;;5.00;95.30;;;;;;4924005;28;37760;-57
2022/03/20 03:00:21;;;;;;;13.70;7.05;;;5.00;95.10;;;;;;4924014;28;38148;-57
2022/03/20 03:02:49;;;;;;;19.13;8.13;;;5.00;95.10;;;;;;4923936;28;38572;-57
2022/03/20 03:05:18;;;;;;;12.80;7.20;;;5.10;94.60;;;;;;4925007;28;37220;-57
2022/03/20 03:13:20;;;;;;;12.52;7.65;;;4.90;94.50;;;;;;4924057;28;38898;-58
2022/03/20 03:15:47;;;;;;;13.93;8.35;;;5.00;94.30;;;;;;4924221;28;37247;-57
2022/03/20 03:18:15;;;;;;;15.60;9.15;;;5.00;94.10;;;;;;4925308;28;35034;-57
2022/03/20 03:20:42;;;;;;;13.32;8.25;;;4.90;94.10;;;;;;4924985;28;37393;-57
2022/03/20 03:23:09;;;;;;;15.45;8.55;;;4.90;94.10;;;;;;4924628;28;37757;-58
2022/03/20 03:25:40;;;;;;;13.85;8.38;;;4.90;93.80;;;;;;4924549;28;38400;-57
2022/03/20 03:28:09;;;;;;;16.23;8.15;;;4.90;93.80;;;;;;4924223;28;37225;-58
2022/03/20 03:30:36;;;;;;;18.23;7.88;;;4.90;93.80;;;;;;4923811;28;37546;-57
2022/03/20 03:33:04;;;;;;;12.20;8.10;;;4.80;93.70;;;;;;4924628;28;37886;-57
2022/03/20 03:35:42;;;;;;;17.50;9.27;;;4.80;93.80;;;;;;4924034;28;38182;-58
2022/03/20 03:38:12;;;;;;;19.83;8.55;;;4.80;93.60;;;;;;4924565;28;36513;-57
2022/03/20 03:40:43;;;;;;;16.45;9.05;;;4.80;93.40;;;;;;4924560;28;38383;-57
2022/03/20 03:43:10;;;;;;;17.60;8.85;;;4.80;93.30;;;;;;4922690;28;38415;-56
2022/03/20 03:45:39;;;;;;;17.70;10.15;;;4.70;93.30;;;;;;4922646;28;38198;-57
2022/03/20 03:48:06;;;;;;;15.88;8.98;;;4.70;93.10;;;;;;4926336;28;35284;-57
2022/03/20 03:50:35;;;;;;;17.25;9.55;;;4.70;93.10;;;;;;4926292;28;35911;-58
2022/03/20 03:53:03;;;;;;;19.00;9.23;;;4.70;92.70;;;;;;4927916;28;37805;-57
2022/03/20 03:55:30;;;;;;;14.50;8.48;;;4.60;92.50;;;;;;4926820;28;36909;-57
2022/03/20 03:58:00;;;;;;;15.40;8.77;;;4.70;92.60;;;;;;4926731;28;36993;-57
2022/03/20 04:00:29;;;;;;;19.05;9.38;;;4.70;92.50;;;;;;4927073;28;37665;-57
2022/03/20 04:02:57;;;;;;;15.57;8.77;;;4.70;92.40;;;;;;4927161;28;36399;-57
2022/03/20 04:05:24;;;;;;;16.80;8.70;;;4.60;92.40;;;;;;4926737;28;37470;-58
2022/03/20 04:07:52;;;;;;;15.68;9.18;;;4.70;92.10;;;;;;4926928;28;38221;-57
2022/03/20 04:10:19;;;;;;;16.73;9.55;;;4.60;92.00;;;;;;4926394;28;36293;-57
2022/03/20 04:12:46;;;;;;;19.00;8.82;;;4.60;92.00;;;;;;4926069;28;39016;-57
2022/03/20 04:15:17;;;;;;;14.43;9.10;;;4.60;91.90;;;;;;4927075;28;37460;-58
2022/03/20 04:17:45;;;;;;;17.00;10.05;;;4.60;91.90;;;;;;4926781;28;39860;-57
2022/03/20 04:20:13;;;;;;;16.17;9.93;;;4.60;91.80;;;;;;4926543;28;37015;-56
2022/03/20 04:23:42;;;;;;;15.27;9.20;;;4.50;91.90;;;;;;4926442;28;37697;-57
2022/03/20 04:25:31;;;;;;;18.27;9.20;;;4.50;91.90;;;;;;4926269;28;38054;-57
2022/03/20 04:27:58;;;;;;;17.00;9.88;;;4.50;91.90;;;;;;4927095;28;36685;-58
2022/03/20 04:30:28;;;;;;;18.02;10.50;;;4.40;91.80;;;;;;4927130;28;37276;-57
2022/03/20 04:32:56;;;;;;;15.68;8.95;;;4.40;92.10;;;;;;4925752;28;38894;-57
2022/03/20 04:35:24;;;;;;;17.08;9.38;;;4.30;92.00;;;;;;4926653;28;37220;-58
2022/03/20 04:37:51;;;;;;;17.60;10.27;;;4.30;92.00;;;;;;4926661;28;36462;-57
2022/03/20 04:40:19;;;;;;;16.63;9.57;;;4.30;91.90;;;;;;4926206;28;38033;-57
2022/03/20 04:42:46;;;;;;;16.02;9.32;;;4.30;92.10;;;;;;4927353;28;37412;-58
2022/03/20 04:45:13;;;;;;;17.42;9.52;;;4.20;92.10;;;;;;4925851;28;37493;-58
2022/03/20 04:58:43;;;;;;;19.05;10.27;;;4.20;92.00;;;;;;4926315;28;37562;-57
2022/03/20 05:01:11;;;;;;;18.23;10.35;;;4.20;91.80;;;;;;4925592;28;37229;-57
2022/03/20 05:03:40;;;;;;;17.42;10.52;;;4.20;91.90;;;;;;4925338;28;36524;-57
2022/03/20 05:06:07;;;;;;;20.17;11.45;;;4.20;91.80;;;;;;4926147;28;38126;-57
2022/03/20 05:08:36;;;;;;;17.50;9.63;;;4.10;91.80;;;;;;4924227;28;37803;-57
2022/03/20 05:13:48;;;;;;;18.77;9.73;;;4.10;91.90;;;;;;4926361;28;38353;-57
2022/03/20 05:16:16;;;;;;;15.70;10.05;;;4.10;91.80;;;;;;4927047;28;38733;-57
2022/03/20 05:18:45;;;;;;;18.50;9.75;;;4.10;91.90;;;;;;4925549;28;36643;-58
2022/03/20 05:21:12;;;;;;;20.23;10.55;;;4.00;92.10;;;;;;4926106;28;37463;-57
2022/03/20 05:23:40;;;;;;;16.27;10.27;;;4.00;91.80;;;;;;4925686;28;36548;-57
2022/03/20 05:26:07;;;;;;;19.58;10.82;;;4.00;91.90;;;;;;4925241;28;37322;-57
2022/03/20 05:28:34;;;;;;;16.42;9.80;;;4.00;92.00;;;;;;4925631;28;36790;-57
2022/03/20 05:31:03;;;;;;;19.05;11.20;;;4.00;91.90;;;;;;4925946;28;36196;-57
2022/03/20 05:33:31;;;;;;;19.60;11.18;;;4.00;91.70;;;;;;4925207;28;36366;-57
2022/03/20 05:36:00;;;;;;;21.27;11.85;;;4.00;91.80;;;;;;4926167;28;36998;-57
2022/03/20 05:38:28;;;;;;;18.17;11.18;;;4.00;91.80;;;;;;4925784;28;37440;-58
2022/03/20 05:43:37;;;;;;;17.58;11.63;;;4.00;91.60;;;;;;4925644;28;39305;-57
2022/03/20 05:46:04;;;;;;;18.95;11.95;;;4.00;91.50;;;;;;4925027;28;36282;-57
2022/03/20 05:48:32;;;;;;;20.67;11.80;;;4.00;91.50;;;;;;4925777;28;37882;-57
2022/03/20 05:51:01;;;;;;;20.13;11.20;;;4.00;91.60;;;;;;4925803;28;38369;-57
2022/03/20 05:53:29;;;;;;;22.38;11.43;;;4.00;91.40;;;;;;4925627;28;37747;-57
2022/03/20 05:58:42;;;;;;;18.52;11.18;;;4.20;91.00;;;;;;4925801;28;36481;-57
2022/03/20 06:01:10;;;;;;;18.83;10.55;;;4.30;90.90;;;;;;4925196;28;38267;-56
2022/03/20 06:03:37;;;;;;;20.73;11.60;;;4.30;90.70;;;;;;4925460;28;38598;-57
2022/03/20 06:06:07;;;;;;;18.80;11.32;;;4.30;90.30;;;;;;4925578;28;36036;-56
2022/03/20 06:08:35;;;;;;;18.45;11.60;;;4.40;90.10;;;;;;4924027;28;36618;-57
2022/03/20 06:11:02;;;;;;;20.45;11.82;;;4.40;90.00;;;;;;4924000;28;36371;-58
2022/03/20 06:13:31;;;;;;;21.67;11.57;;;4.40;90.10;;;;;;4924273;28;37770;-61
2022/03/20 06:15:58;;;;;;;20.98;12.27;;;4.40;90.00;;;;;;4925105;28;37241;-58
2022/03/20 06:18:27;;;;;;;18.02;11.02;;;4.40;89.70;;;;;;4925366;28;36811;-57
2022/03/20 06:20:57;;;;;;;21.23;12.30;;;4.40;88.80;;;;;;4924370;28;37898;-56
2022/03/20 06:23:27;;;;;;;19.65;11.73;;;4.40;89.00;;;;;;4924520;28;38501;-57
2022/03/20 06:25:54;;;;;;;20.80;12.27;;;4.50;89.10;;;;;;4924223;28;37640;-57
2022/03/20 06:28:21;;;;;;;17.88;10.88;;;4.50;88.30;;;;;;4924798;28;37594;-56
2022/03/20 06:30:49;;;;;;;20.65;12.57;;;4.60;88.80;;;;;;4922544;28;37032;-57
2022/03/20 06:33:16;;;;;;;17.85;11.60;;;4.60;87.90;;;;;;4924226;28;37527;-56
2022/03/20 06:35:43;;;;;;;19.65;11.55;;;4.60;87.40;;;;;;4925061;28;37202;-57
2022/03/20 06:38:11;;;;;;;18.40;12.05;;;4.70;87.50;;;;;;4925096;28;36855;-57
2022/03/20 06:40:40;;;;;;;19.70;11.52;;;4.80;87.10;;;;;;4924806;28;37983;-56
2022/03/20 06:43:07;;;;;;;22.40;12.52;;;4.80;86.00;;;;;;4924027;28;37810;-57
2022/03/20 06:45:35;;;;;;;20.63;11.93;;;4.90;86.00;;;;;;4923767;28;37279;-57
2022/03/20 06:48:04;;;;;;;19.25;11.82;;;5.00;86.20;;;;;;4924004;28;36262;-57
2022/03/20 06:50:31;;;;;;;19.90;12.45;;;5.10;84.80;;;;;;4924274;28;37176;-57
2022/03/20 06:53:04;;;;;;;21.80;12.63;;;5.10;84.40;;;;;;4925435;28;36972;-56
2022/03/20 06:55:32;;;;;;;19.70;12.00;;;5.10;84.70;;;;;;4924865;28;36113;-56
2022/03/20 06:58:01;;;;;;;19.77;12.43;;;5.10;84.30;;;;;;4924235;28;37194;-57
2022/03/20 07:00:29;;;;;;;19.08;12.25;;;5.10;83.30;;;;;;4925135;28;38173;-57
2022/03/20 07:02:56;;;;;;;23.40;12.48;;;5.20;82.80;;;;;;4924981;28;37644;-56
2022/03/20 07:05:24;;;;;;;20.38;12.88;;;5.20;83.10;;;;;;4924415;28;37297;-56
2022/03/20 07:07:51;;;;;;;21.30;11.80;;;5.30;83.00;;;;;;4924449;28;36717;-56
2022/03/20 07:10:21;;;;;;;20.40;12.85;;;5.40;82.40;;;;;;4924946;28;36910;-57
2022/03/20 07:12:50;;;;;;;23.40;12.70;;;5.40;81.60;;;;;;4924875;28;38768;-57
2022/03/20 07:15:18;;;;;;;19.45;12.52;;;5.50;80.70;;;;;;4924446;28;37666;-57
2022/03/20 07:17:47;;;;;;;20.17;12.43;;;5.50;79.70;;;;;;4925269;28;36599;-57
2022/03/20 07:20:16;;;;;;;22.38;11.55;;;5.60;79.20;;;;;;4924695;28;38938;-58
2022/03/20 07:22:44;;;;;;;20.42;12.30;;;5.60;79.10;;;;;;4926641;28;37028;-57
2022/03/20 07:30:43;;;;;;;20.30;11.93;;;5.90;77.30;;;;;;4928354;28;38764;-57
2022/03/20 07:33:11;;;;;;;24.83;12.48;;;6.10;76.70;;;;;;4927310;28;37904;-58
2022/03/20 07:35:39;;;;;;;20.70;12.40;;;6.20;76.70;;;;;;4927577;28;38263;-57
2022/03/20 07:38:07;;;;;;;21.45;12.50;;;6.30;75.80;;;;;;4928707;28;38424;-57
2022/03/20 07:40:34;;;;;;;20.33;12.98;;;6.10;73.40;;;;;;4926475;28;36144;-58
2022/03/20 07:43:01;;;;;;;21.58;13.07;;;6.10;74.00;;;;;;4927631;28;38142;-57
2022/03/20 07:45:29;;;;;;;19.30;12.75;;;6.10;74.20;;;;;;4927182;28;37178;-57
2022/03/20 07:47:57;;;;;;;21.00;12.88;;;6.20;75.30;;;;;;4927863;28;36292;-57
2022/03/20 07:50:25;;;;;;;18.60;12.77;;;6.30;75.00;;;;;;4927430;28;36864;-57
2022/03/20 07:52:52;;;;;;;21.20;12.63;;;6.30;74.00;;;;;;4927291;28;37809;-59
2022/03/20 07:55:20;;;;;;;22.10;12.98;;;6.20;72.60;;;;;;4927453;28;37261;-58
2022/03/20 07:57:47;;;;;;;21.90;13.27;;;6.20;73.60;;;;;;4926339;28;37612;-58
2022/03/20 08:00:16;;;;;;;26.48;13.55;;;6.30;73.30;;;;;;4926991;28;37545;-58
2022/03/20 08:02:44;;;;;;;20.23;12.63;;;6.40;73.70;;;;;;4927367;28;38912;-57
2022/03/20 08:05:12;;;;;;;20.17;12.50;;;6.40;72.40;;;;;;4927709;28;37637;-58
2022/03/20 08:07:40;;;;;;;22.92;13.35;;;6.60;71.90;;;;;;4926244;28;37470;-58
2022/03/20 08:10:08;;;;;;;21.85;13.18;;;6.70;71.30;;;;;;4926415;28;38634;-58
2022/03/20 08:12:36;;;;;;;21.52;12.70;;;6.90;70.70;;;;;;4926276;28;37555;-58
2022/03/20 08:15:04;;;;;;;21.98;13.68;;;7.10;69.90;;;;;;4925888;28;40168;-59
2022/03/20 08:17:32;;;;;;;24.63;13.75;;;7.30;67.60;;;;;;4925947;28;37324;-58
2022/03/20 08:20:00;;;;;;;21.95;12.60;;;7.50;66.30;;;;;;4925574;28;38908;-58
2022/03/20 08:22:29;;;;;;;22.33;13.55;;;7.70;65.80;;;;;;4926870;28;38434;-59
2022/03/20 08:24:56;;;;;;;22.52;13.05;;;7.90;64.00;;;;;;4926563;28;37686;-58
2022/03/20 08:27:24;;;;;;;20.52;13.52;;;8.20;64.80;;;;;;4925685;28;35273;-58
2022/03/20 08:29:52;;;;;;;21.33;13.20;;;8.20;62.40;;;;;;4925993;28;36928;-58
2022/03/20 08:32:22;;;;;;;21.42;14.00;;;8.30;63.10;;;;;;4925689;28;37558;-57
2022/03/20 08:34:49;;;;;;;24.98;13.90;;;8.30;61.20;;;;;;4925222;28;37293;-58
2022/03/20 08:37:17;;;;;;;20.83;13.50;;;8.30;62.90;;;;;;4926786;28;36486;-58
2022/03/20 08:39:46;;;;;;;22.08;13.70;;;8.50;63.20;;;;;;4926354;28;37548;-58
2022/03/20 08:42:13;;;;;;;23.30;13.63;;;8.90;62.00;;;;;;4925760;28;37745;-58
2022/03/20 08:44:40;;;;;;;20.98;13.52;;;9.20;60.10;;;;;;4927348;28;37274;-58
2022/03/20 08:47:08;;;;;;;23.83;13.98;;;9.40;58.40;;;;;;4925895;28;36030;-58
2022/03/20 08:49:35;;;;;;;19.77;13.43;;;9.70;57.00;;;;;;4926774;28;37357;-58
2022/03/20 08:52:03;;;;;;;22.38;13.95;;;9.90;55.30;;;;;;4926848;28;36108;-58
2022/03/20 08:54:31;;;;;;;22.23;13.02;;;10.10;55.20;;;;;;4926853;28;36053;-58
2022/03/20 08:57:01;;;;;;;21.80;14.43;;;10.10;55.00;;;;;;4925598;28;39088;-58
2022/03/20 08:59:28;;;;;;;20.55;14.38;;;9.80;54.30;;;;;;4926272;28;38499;-59
2022/03/20 09:01:55;;;;;;;20.40;14.52;;;9.70;54.00;;;;;;4925661;28;36192;-59
2022/03/20 09:04:23;;;;;;;23.92;15.20;;;9.50;55.00;;;;;;4925888;28;37391;-57
2022/03/20 09:06:50;;;;;;;23.88;14.77;;;9.50;54.70;;;;;;4926129;28;35588;-58
2022/03/20 09:09:17;;;;;;;22.92;13.68;;;9.60;56.20;;;;;;4924764;28;38625;-58
2022/03/20 09:11:46;;;;;;;22.27;13.82;;;9.70;54.30;;;;;;4925870;28;38359;-59
2022/03/20 09:14:16;;;;;;;25.52;15.07;;;9.90;53.80;;;;;;4926110;28;38185;-58
2022/03/20 09:19:28;;;;;;;21.70;14.68;;;10.10;52.40;;;;;;4926735;28;38156;-58
2022/03/20 09:21:55;;;;;;;22.40;13.40;;;10.50;53.90;;;;;;4925914;28;39938;-58
2022/03/20 09:24:23;;;;;;;24.40;15.50;;;10.90;52.50;;;;;;4924949;28;37755;-58
2022/03/20 09:26:50;;;;;;;25.15;15.32;;;11.30;52.30;;;;;;4925397;28;35612;-58
2022/03/20 09:29:19;;;;;;;24.65;15.30;;;11.60;51.30;;;;;;4925428;28;38620;-58
2022/03/20 09:31:50;;;;;;;22.52;15.15;;;11.50;49.90;;;;;;4925773;28;38750;-58
2022/03/20 09:34:17;;;;;;;23.15;15.55;;;11.60;50.50;;;;;;4925097;28;37682;-58
2022/03/20 09:36:44;;;;;;;22.45;15.32;;;11.60;50.20;;;;;;4925903;28;38205;-58
2022/03/20 09:39:12;;;;;;;24.88;16.15;;;11.60;49.50;;;;;;4925134;28;37200;-58
2022/03/20 09:41:41;;;;;;;23.15;16.48;;;11.60;49.50;;;;;;4925345;28;38001;-58
2022/03/20 09:44:10;;;;;;;21.05;15.18;;;11.60;50.60;;;;;;4924272;28;38046;-58
2022/03/20 09:46:38;;;;;;;21.08;14.90;;;11.50;51.00;;;;;;4925327;28;36192;-58
2022/03/20 09:49:07;;;;;;;23.35;15.45;;;11.50;50.80;;;;;;4926486;28;37367;-59
2022/03/20 09:51:35;;;;;;;25.02;15.07;;;11.60;50.10;;;;;;4925566;28;38098;-58
2022/03/20 09:54:03;;;;;;;24.10;15.93;;;11.70;50.50;;;;;;4925591;28;37533;-59
2022/03/20 09:56:30;;;;;;;26.58;16.70;;;12.10;48.50;;;;;;4924681;28;37199;-58
2022/03/20 09:58:57;;;;;;;23.23;16.45;;;12.30;46.20;;;;;;4924039;28;38550;-58
2022/03/20 10:01:25;;;;;;;22.88;16.58;;;12.50;46.30;;;;;;4925081;28;37917;-58
2022/03/20 10:06:45;;;;;;;23.75;15.65;;;12.80;45.60;;;;;;5106092;27;20504;-59
2022/03/20 10:09:16;;;;;;;25.65;16.80;;;13.30;43.50;;;;;;5091306;27;37357;-59
2022/03/20 10:11:49;;;;;;;25.02;16.80;;;13.40;42.00;;;;;;5092049;27;37268;-59
2022/03/20 10:14:18;;;;;;;22.85;15.82;;;13.30;41.20;;;;;;5091385;27;37727;-58
2022/03/20 10:16:49;;;;;;;20.98;15.70;;;13.40;42.80;;;;;;5092225;27;36955;-59
2022/03/20 10:19:33;;;;;;;25.10;16.40;;;13.10;42.40;;;;;;5090535;27;37316;-59
2022/03/20 10:22:04;;;;;;;23.08;15.65;;;12.80;42.20;;;;;;5091814;27;38570;-59
2022/03/20 10:24:33;;;;;;;25.00;15.98;;;12.50;43.80;;;;;;5091053;27;37636;-58
2022/03/20 10:27:11;;;;;;;26.10;16.05;;;12.30;44.60;;;;;;5090933;27;38167;-59
2022/03/20 10:29:51;;;;;;;23.85;15.57;;;12.30;45.10;;;;;;5091602;27;37168;-58
2022/03/20 10:32:19;;;;;;;24.75;17.27;;;12.30;44.50;;;;;;5091316;27;37323;-58
2022/03/20 10:34:51;;;;;;;27.48;16.85;;;12.30;45.10;;;;;;5090952;27;38333;-59
2022/03/20 10:37:21;;;;;;;25.50;15.90;;;12.50;43.10;;;;;;5091694;27;38063;-59
2022/03/20 10:39:48;;;;;;;23.75;16.38;;;12.70;42.50;;;;;;5091577;27;35826;-58
2022/03/20 10:42:18;;;;;;;24.92;17.52;;;13.00;42.60;;;;;;5091620;27;37539;-59
2022/03/20 10:44:45;;;;;;;23.55;16.58;;;13.40;41.70;;;;;;5092020;27;36971;-59
2022/03/20 10:47:16;;;;;;;23.70;16.23;;;13.60;40.50;;;;;;5090586;27;37629;-60
2022/03/20 10:49:48;;;;;;;25.02;17.50;;;13.90;40.10;;;;;;5091673;27;36935;-59
2022/03/20 10:52:22;;;;;;;26.90;17.67;;;14.00;40.00;;;;;;5090449;27;38679;-59
2022/03/20 10:54:53;;;;;;;26.58;16.83;;;14.00;39.70;;;;;;5090444;27;38152;-59
2022/03/20 10:57:21;;;;;;;25.25;16.17;;;13.90;39.40;;;;;;5090241;27;36749;-58
2022/03/20 10:59:58;;;;;;;26.45;17.08;;;13.80;40.20;;;;;;5091748;27;37208;-58
2022/03/20 11:02:26;;;;;;;29.48;18.85;;;13.50;40.00;;;;;;5091326;27;37122;-59
2022/03/20 11:04:55;;;;;;;31.77;18.55;;;13.20;41.10;;;;;;5089555;27;39017;-59
2022/03/20 11:07:26;;;;;;;26.67;17.17;;;12.90;41.60;;;;;;5091066;27;38203;-59
2022/03/20 11:09:55;;;;;;;30.58;17.02;;;12.60;41.70;;;;;;5089488;27;37288;-59
2022/03/20 11:12:26;;;;;;;22.85;16.38;;;12.60;42.40;;;;;;5091347;27;36608;-59
2022/03/20 11:14:58;;;;;;;28.92;18.45;;;12.40;43.10;;;;;;5091062;27;38646;-58
2022/03/20 11:17:28;;;;;;;25.48;17.73;;;12.30;42.50;;;;;;5082000;27;37443;-58
2022/03/20 11:19:58;;;;;;;27.52;17.67;;;12.30;43.50;;;;;;5078291;27;37146;-59
2022/03/20 11:22:28;;;;;;;26.90;18.13;;;12.30;43.70;;;;;;5077680;27;37245;-59
2022/03/20 11:24:55;;;;;;;23.75;16.75;;;12.40;43.90;;;;;;5075429;28;37789;-59
2022/03/20 11:27:27;;;;;;;24.10;17.30;;;12.40;44.10;;;;;;5076727;28;36891;-58
2022/03/20 11:30:01;;;;;;;28.38;17.98;;;12.30;43.60;;;;;;5076887;28;35785;-58
2022/03/20 11:32:29;;;;;;;31.40;17.67;;;12.20;43.60;;;;;;5077480;27;36099;-59
2022/03/20 11:34:57;;;;;;;24.83;17.35;;;12.00;43.70;;;;;;5077045;27;38355;-58
2022/03/20 11:37:41;;;;;;;30.95;19.25;;;12.00;44.80;;;;;;5077277;27;37721;-58
2022/03/20 11:40:13;;;;;;;26.90;18.25;;;12.00;44.60;;;;;;5076388;28;37158;-59
2022/03/20 11:42:41;;;;;;;30.00;17.75;;;12.10;44.30;;;;;;5076978;28;36291;-58
2022/03/20 11:45:18;;;;;;;26.80;18.55;;;12.30;44.70;;;;;;5075166;28;39497;-59
2022/03/20 11:47:47;;;;;;;25.85;18.40;;;12.40;44.10;;;;;;5076890;27;36852;-59
2022/03/20 11:50:17;;;;;;;26.33;17.58;;;12.30;43.70;;;;;;5076976;28;39084;-60
2022/03/20 11:52:50;;;;;;;26.45;18.23;;;12.30;43.60;;;;;;5077079;27;37300;-59
2022/03/20 11:55:32;;;;;;;31.38;18.50;;;12.40;44.10;;;;;;5075697;27;37634;-58
2022/03/20 11:58:01;;;;;;;27.65;17.45;;;12.30;42.80;;;;;;5077222;28;37286;-59
2022/03/20 12:00:30;;;;;;;29.27;19.55;;;12.40;43.30;;;;;;5076322;28;37050;-59
2022/03/20 12:03:26;;;;;;;25.02;17.25;;;12.40;43.40;;;;;;5077185;28;37426;-58
2022/03/20 12:06:26;;;;;;;27.73;17.58;;;12.40;43.40;;;;;;5076274;28;39990;-59
2022/03/20 12:09:04;;;;;;;27.73;17.33;;;12.40;43.00;;;;;;5075799;28;35837;-59
2022/03/20 12:11:42;;;;;;;27.35;17.67;;;12.40;43.90;;;;;;5076438;27;35714;-58
2022/03/20 12:14:27;;;;;;;25.63;16.88;;;12.40;44.80;;;;;;5076830;27;36733;-59
2022/03/20 12:16:59;;;;;;;27.73;17.05;;;12.50;44.30;;;;;;5076091;27;37275;-59
2022/03/20 12:19:42;;;;;;;28.73;16.92;;;12.40;43.40;;;;;;5076024;28;36959;-59
2022/03/20 12:22:15;;;;;;;26.45;17.55;;;12.40;44.30;;;;;;5076803;28;36667;-59
2022/03/20 12:24:52;;;;;;;28.05;18.63;;;12.40;44.30;;;;;;5076090;28;37568;-59
2022/03/20 12:27:48;;;;;;;24.98;17.20;;;12.30;43.50;;;;;;5076261;27;37678;-60
2022/03/20 12:30:46;;;;;;;25.98;17.58;;;12.20;42.90;;;;;;5076138;28;36891;-61
2022/03/20 12:33:24;;;;;;;26.67;16.38;;;12.20;43.50;;;;;;5075385;27;38269;-59
2022/03/20 12:35:52;;;;;;;39.72;18.40;;;12.20;44.40;;;;;;5075647;27;36279;-61
2022/03/20 12:38:41;;;;;;;27.50;17.90;;;12.20;44.10;;;;;;5076363;27;37593;-59
2022/03/20 12:41:14;;;;;;;25.88;17.23;;;12.20;45.10;;;;;;5076281;27;37064;-58
2022/03/20 12:43:42;;;;;;;24.05;16.92;;;12.30;44.40;;;;;;5076793;28;37063;-59
2022/03/20 12:46:10;;;;;;;26.23;17.63;;;12.30;44.00;;;;;;5076923;28;36227;-59
2022/03/20 12:48:38;;;;;;;25.42;17.42;;;12.30;44.50;;;;;;5076319;27;38442;-59
2022/03/20 12:51:10;;;;;;;33.20;18.10;;;12.30;44.10;;;;;;5076578;27;37054;-60
2022/03/20 12:53:40;;;;;;;29.27;18.83;;;12.30;43.80;;;;;;5075905;28;37505;-59
2022/03/20 12:56:14;;;;;;;23.95;17.60;;;12.30;44.70;;;;;;5076352;28;35585;-59
2022/03/20 12:58:43;;;;;;;29.58;18.05;;;12.30;44.10;;;;;;5075737;28;37420;-59
2022/03/20 13:01:11;;;;;;;26.40;18.13;;;12.20;44.40;;;;;;5076590;27;35759;-59
2022/03/20 13:03:40;;;;;;;24.67;17.27;;;12.20;44.50;;;;;;5076182;27;36080;-59
2022/03/20 13:06:07;;;;;;;26.10;16.42;;;12.20;44.80;;;;;;5074214;28;35460;-58
2022/03/20 13:08:36;;;;;;;26.00;17.52;;;12.10;44.00;;;;;;5075280;27;37884;-59
2022/03/20 13:11:48;;;;;;;25.77;18.13;;;12.10;43.40;;;;;;5073770;28;35805;-59
2022/03/20 13:14:01;;;;;;;26.10;16.92;;;12.00;44.10;;;;;;5075481;28;38424;-59
2022/03/20 13:16:29;;;;;;;29.45;17.42;;;12.00;44.00;;;;;;5074915;27;36489;-60
2022/03/20 13:18:56;;;;;;;27.73;17.63;;;12.00;44.50;;;;;;5076168;28;38201;-62
2022/03/20 13:21:24;;;;;;;27.73;18.42;;;12.00;43.90;;;;;;5075156;27;37165;-59
2022/03/20 13:23:52;;;;;;;25.75;17.38;;;12.00;44.50;;;;;;5075812;28;38739;-58
2022/03/20 13:26:22;;;;;;;26.23;18.25;;;12.00;43.80;;;;;;5073398;28;36481;-58